Terminal Aerodrome Forecast
Issued by NWS

Home | Current Version | Previous Version | Text Only | Print | Product List | Glossary On
Versions: 1 2 3 4 5 6 7 8 9 10 11 12 13 14
000
FTUS44 KJAN 241723
TAFHKS
TAF
KHKS 241723Z 2418/2518 15012KT P6SM BKN035 BKN045
     FM241900 15016G22KT P6SM VCTS SCT040CB BKN250
     FM250000 15020G30KT 1SM +TSRA BR OVC030CB
     FM250200 14013KT 4SM -RA BR VCTS SCT035CB BKN100
     FM250500 14013KT P6SM OVC015
     FM250800 15013KT P6SM OVC007
     FM251500 16011KT P6SM SCT015 OVC050=

USA.gov is the U.S. government's official web portal to all federal, state and local government web resources and services.